sensor_id;sensor_type;location;lat;lon;timestamp;temperature;humidity
5461;DHT22;2753;49.196;8.286;2022-12-29T00:01:40;8.60;99.90
5461;DHT22;2753;49.196;8.286;2022-12-29T00:04:06;8.60;99.90
5461;DHT22;2753;49.196;8.286;2022-12-29T00:06:32;8.60;99.90
5461;DHT22;2753;49.196;8.286;2022-12-29T00:08:58;8.60;99.90
5461;DHT22;2753;49.196;8.286;2022-12-29T00:11:26;8.70;99.90
5461;DHT22;2753;49.196;8.286;2022-12-29T00:13:52;8.70;99.90
5461;DHT22;2753;49.196;8.286;2022-12-29T00:19:48;8.90;99.90
5461;DHT22;2753;49.196;8.286;2022-12-29T00:22:33;8.80;99.90
5461;DHT22;2753;49.196;8.286;2022-12-29T00:25:17;8.80;99.90
5461;DHT22;2753;49.196;8.286;2022-12-29T00:28:01;8.90;99.90
5461;DHT22;2753;49.196;8.286;2022-12-29T00:30:45;8.90;99.90
5461;DHT22;2753;49.196;8.286;2022-12-29T00:33:30;8.90;99.90
5461;DHT22;2753;49.196;8.286;2022-12-29T00:42:12;9.00;99.90
5461;DHT22;2753;49.196;8.286;2022-12-29T00:44:56;8.90;99.90
5461;DHT22;2753;49.196;8.286;2022-12-29T00:47:22;8.90;99.90
5461;DHT22;2753;49.196;8.286;2022-12-29T00:49:48;9.00;99.90
5461;DHT22;2753;49.196;8.286;2022-12-29T00:52:13;8.90;99.90
5461;DHT22;2753;49.196;8.286;2022-12-29T00:54:40;9.00;99.90
5461;DHT22;2753;49.196;8.286;2022-12-29T00:57:08;9.10;99.90
5461;DHT22;2753;49.196;8.286;2022-12-29T00:59:38;9.20;99.90
5461;DHT22;2753;49.196;8.286;2022-12-29T01:02:05;9.30;99.90
5461;DHT22;2753;49.196;8.286;2022-12-29T01:04:30;9.50;99.90
5461;DHT22;2753;49.196;8.286;2022-12-29T01:06:56;9.70;99.90
5461;DHT22;2753;49.196;8.286;2022-12-29T01:09:22;9.70;99.90
5461;DHT22;2753;49.196;8.286;2022-12-29T01:12:07;9.80;99.90
5461;DHT22;2753;49.196;8.286;2022-12-29T01:14:33;10.00;99.90
5461;DHT22;2753;49.196;8.286;2022-12-29T01:16:59;10.00;99.90
5461;DHT22;2753;49.196;8.286;2022-12-29T01:19:25;10.00;99.90
5461;DHT22;2753;49.196;8.286;2022-12-29T01:21:51;10.10;99.90
5461;DHT22;2753;49.196;8.286;2022-12-29T01:24:18;10.20;99.90
5461;DHT22;2753;49.196;8.286;2022-12-29T01:26:44;10.20;99.90
5461;DHT22;2753;49.196;8.286;2022-12-29T01:29:10;10.20;99.90
5461;DHT22;2753;49.196;8.286;2022-12-29T01:31:35;10.20;99.90
5461;DHT22;2753;49.196;8.286;2022-12-29T01:34:01;10.30;99.90
5461;DHT22;2753;49.196;8.286;2022-12-29T01:36:27;10.30;99.90
5461;DHT22;2753;49.196;8.286;2022-12-29T01:38:53;10.30;99.90
5461;DHT22;2753;49.196;8.286;2022-12-29T01:41:19;10.30;99.90
5461;DHT22;2753;49.196;8.286;2022-12-29T01:43:48;10.30;99.90
5461;DHT22;2753;49.196;8.286;2022-12-29T01:51:25;10.30;99.90
5461;DHT22;2753;49.196;8.286;2022-12-29T01:53:53;10.30;99.90
5461;DHT22;2753;49.196;8.286;2022-12-29T01:56:20;10.20;99.90
5461;DHT22;2753;49.196;8.286;2022-12-29T01:58:50;10.30;99.90
5461;DHT22;2753;49.196;8.286;2022-12-29T02:01:20;10.20;99.90
5461;DHT22;2753;49.196;8.286;2022-12-29T02:03:47;10.20;99.90
5461;DHT22;2753;49.196;8.286;2022-12-29T02:06:23;10.30;99.90
5461;DHT22;2753;49.196;8.286;2022-12-29T02:08:50;10.30;99.90
5461;DHT22;2753;49.196;8.286;2022-12-29T02:11:18;10.30;99.90
5461;DHT22;2753;49.196;8.286;2022-12-29T02:13:44;10.80;99.90
5461;DHT22;2753;49.196;8.286;2022-12-29T02:33:13;10.40;99.90
5461;DHT22;2753;49.196;8.286;2022-12-29T02:41:34;10.40;99.90
5461;DHT22;2753;49.196;8.286;2022-12-29T02:44:24;10.30;99.90
5461;DHT22;2753;49.196;8.286;2022-12-29T02:52:35;10.30;99.90
5461;DHT22;2753;49.196;8.286;2022-12-29T02:55:03;10.20;99.90
5461;DHT22;2753;49.196;8.286;2022-12-29T02:57:32;10.20;99.90
5461;DHT22;2753;49.196;8.286;2022-12-29T03:00:02;10.20;99.90
5461;DHT22;2753;49.196;8.286;2022-12-29T03:11:07;10.10;99.90
5461;DHT22;2753;49.196;8.286;2022-12-29T03:14:02;10.10;99.90
5461;DHT22;2753;49.196;8.286;2022-12-29T03:16:57;10.10;99.90
5461;DHT22;2753;49.196;8.286;2022-12-29T03:19:32;10.00;99.90
5461;DHT22;2753;49.196;8.286;2022-12-29T03:22:09;10.00;99.90
5461;DHT22;2753;49.196;8.286;2022-12-29T03:25:08;10.10;99.90
5461;DHT22;2753;49.196;8.286;2022-12-29T03:27:39;10.10;99.90
5461;DHT22;2753;49.196;8.286;2022-12-29T03:30:06;10.10;99.90
5461;DHT22;2753;49.196;8.286;2022-12-29T03:32:47;10.10;99.90
5461;DHT22;2753;49.196;8.286;2022-12-29T03:35:16;10.10;99.90
5461;DHT22;2753;49.196;8.286;2022-12-29T03:40:37;10.30;99.90
5461;DHT22;2753;49.196;8.286;2022-12-29T03:45:33;10.10;99.90
5461;DHT22;2753;49.196;8.286;2022-12-29T03:47:59;10.20;99.90
5461;DHT22;2753;49.196;8.286;2022-12-29T03:50:25;10.20;99.90
5461;DHT22;2753;49.196;8.286;2022-12-29T03:52:50;10.10;99.90
5461;DHT22;2753;49.196;8.286;2022-12-29T03:55:16;10.20;99.90
5461;DHT22;2753;49.196;8.286;2022-12-29T03:57:42;10.20;99.90
5461;DHT22;2753;49.196;8.286;2022-12-29T04:00:08;10.20;99.90
5461;DHT22;2753;49.196;8.286;2022-12-29T04:02:34;10.20;99.90
5461;DHT22;2753;49.196;8.286;2022-12-29T04:05:03;10.20;99.90
5461;DHT22;2753;49.196;8.286;2022-12-29T04:07:29;10.20;99.90
5461;DHT22;2753;49.196;8.286;2022-12-29T04:09:54;10.10;99.90
5461;DHT22;2753;49.196;8.286;2022-12-29T04:12:20;10.10;99.90
5461;DHT22;2753;49.196;8.286;2022-12-29T04:14:46;10.10;99.90
5461;DHT22;2753;49.196;8.286;2022-12-29T04:17:12;10.20;99.90
5461;DHT22;2753;49.196;8.286;2022-12-29T04:19:37;10.30;99.90
5461;DHT22;2753;49.196;8.286;2022-12-29T04:22:03;10.30;99.90
5461;DHT22;2753;49.196;8.286;2022-12-29T04:24:29;10.30;99.90
5461;DHT22;2753;49.196;8.286;2022-12-29T04:26:55;10.30;99.90
5461;DHT22;2753;49.196;8.286;2022-12-29T04:29:20;10.30;99.90
5461;DHT22;2753;49.196;8.286;2022-12-29T04:31:46;10.30;99.90
5461;DHT22;2753;49.196;8.286;2022-12-29T04:34:12;10.30;99.90
5461;DHT22;2753;49.196;8.286;2022-12-29T04:36:38;10.30;99.90
5461;DHT22;2753;49.196;8.286;2022-12-29T04:39:05;10.30;99.90
5461;DHT22;2753;49.196;8.286;2022-12-29T04:41:31;10.30;99.90
5461;DHT22;2753;49.196;8.286;2022-12-29T04:43:56;10.30;99.90
5461;DHT22;2753;49.196;8.286;2022-12-29T04:46:22;10.30;99.90
5461;DHT22;2753;49.196;8.286;2022-12-29T04:48:48;10.20;99.90
5461;DHT22;2753;49.196;8.286;2022-12-29T04:51:14;10.20;99.90
5461;DHT22;2753;49.196;8.286;2022-12-29T04:53:40;10.30;99.90
5461;DHT22;2753;49.196;8.286;2022-12-29T04:56:06;10.30;99.90
5461;DHT22;2753;49.196;8.286;2022-12-29T04:58:32;10.20;99.90
5461;DHT22;2753;49.196;8.286;2022-12-29T05:00:58;10.20;99.90
5461;DHT22;2753;49.196;8.286;2022-12-29T05:03:24;10.20;99.90
5461;DHT22;2753;49.196;8.286;2022-12-29T05:05:52;10.20;99.90
5461;DHT22;2753;49.196;8.286;2022-12-29T05:08:18;10.20;99.90
5461;DHT22;2753;49.196;8.286;2022-12-29T05:10:45;10.20;99.90
5461;DHT22;2753;49.196;8.286;2022-12-29T05:13:11;10.10;99.90
5461;DHT22;2753;49.196;8.286;2022-12-29T05:15:36;10.10;99.90
5461;DHT22;2753;49.196;8.286;2022-12-29T05:18:02;10.20;99.90
5461;DHT22;2753;49.196;8.286;2022-12-29T05:20:28;10.10;99.90
5461;DHT22;2753;49.196;8.286;2022-12-29T05:22:53;10.10;99.90
5461;DHT22;2753;49.196;8.286;2022-12-29T05:25:19;10.20;99.90
5461;DHT22;2753;49.196;8.286;2022-12-29T05:27:44;10.20;99.90
5461;DHT22;2753;49.196;8.286;2022-12-29T05:30:11;10.20;99.90
5461;DHT22;2753;49.196;8.286;2022-12-29T05:32:36;10.20;99.90
5461;DHT22;2753;49.196;8.286;2022-12-29T05:35:02;10.10;99.90
5461;DHT22;2753;49.196;8.286;2022-12-29T05:37:28;10.20;99.90
5461;DHT22;2753;49.196;8.286;2022-12-29T05:39:54;10.20;99.90
5461;DHT22;2753;49.196;8.286;2022-12-29T05:42:19;10.20;99.90
5461;DHT22;2753;49.196;8.286;2022-12-29T05:44:45;10.20;99.90
5461;DHT22;2753;49.196;8.286;2022-12-29T05:47:10;10.20;99.90
5461;DHT22;2753;49.196;8.286;2022-12-29T05:49:36;10.20;99.90
5461;DHT22;2753;49.196;8.286;2022-12-29T05:52:02;10.20;99.90
5461;DHT22;2753;49.196;8.286;2022-12-29T05:54:28;10.20;99.90
5461;DHT22;2753;49.196;8.286;2022-12-29T05:56:53;10.20;99.90
5461;DHT22;2753;49.196;8.286;2022-12-29T05:59:19;10.10;99.90
5461;DHT22;2753;49.196;8.286;2022-12-29T06:01:45;10.20;99.90
5461;DHT22;2753;49.196;8.286;2022-12-29T06:04:10;10.20;99.90
5461;DHT22;2753;49.196;8.286;2022-12-29T06:06:36;10.20;99.90
5461;DHT22;2753;49.196;8.286;2022-12-29T06:09:02;10.20;99.90
5461;DHT22;2753;49.196;8.286;2022-12-29T06:11:28;10.20;99.90
5461;DHT22;2753;49.196;8.286;2022-12-29T06:13:54;10.20;99.90
5461;DHT22;2753;49.196;8.286;2022-12-29T06:16:20;10.30;99.90
5461;DHT22;2753;49.196;8.286;2022-12-29T06:18:46;10.20;99.90
5461;DHT22;2753;49.196;8.286;2022-12-29T06:21:11;10.30;99.90
5461;DHT22;2753;49.196;8.286;2022-12-29T06:23:37;10.30;99.90
5461;DHT22;2753;49.196;8.286;2022-12-29T06:26:03;10.30;99.90
5461;DHT22;2753;49.196;8.286;2022-12-29T06:28:28;10.30;99.90
5461;DHT22;2753;49.196;8.286;2022-12-29T06:30:54;10.30;99.90
5461;DHT22;2753;49.196;8.286;2022-12-29T06:33:20;10.40;99.90
5461;DHT22;2753;49.196;8.286;2022-12-29T06:35:46;10.40;99.90
5461;DHT22;2753;49.196;8.286;2022-12-29T06:38:12;10.40;99.90
5461;DHT22;2753;49.196;8.286;2022-12-29T06:40:38;10.40;99.90
5461;DHT22;2753;49.196;8.286;2022-12-29T06:43:04;10.40;99.90
5461;DHT22;2753;49.196;8.286;2022-12-29T06:45:29;10.30;99.90
5461;DHT22;2753;49.196;8.286;2022-12-29T06:47:55;10.30;99.90
5461;DHT22;2753;49.196;8.286;2022-12-29T06:50:21;10.40;99.90
5461;DHT22;2753;49.196;8.286;2022-12-29T06:52:46;10.40;99.90
5461;DHT22;2753;49.196;8.286;2022-12-29T06:55:12;10.40;99.90
5461;DHT22;2753;49.196;8.286;2022-12-29T06:57:38;10.40;99.90
5461;DHT22;2753;49.196;8.286;2022-12-29T07:00:04;10.40;99.90
5461;DHT22;2753;49.196;8.286;2022-12-29T07:02:30;10.40;99.90
5461;DHT22;2753;49.196;8.286;2022-12-29T07:04:56;10.50;99.90
5461;DHT22;2753;49.196;8.286;2022-12-29T07:07:22;10.60;99.90
5461;DHT22;2753;49.196;8.286;2022-12-29T07:09:47;10.50;99.90
5461;DHT22;2753;49.196;8.286;2022-12-29T07:12:13;10.50;99.90
5461;DHT22;2753;49.196;8.286;2022-12-29T07:14:39;10.50;99.90
5461;DHT22;2753;49.196;8.286;2022-12-29T07:17:05;10.50;99.90
5461;DHT22;2753;49.196;8.286;2022-12-29T07:19:32;10.60;99.90
5461;DHT22;2753;49.196;8.286;2022-12-29T07:21:58;10.60;99.90
5461;DHT22;2753;49.196;8.286;2022-12-29T07:24:24;10.60;99.90
5461;DHT22;2753;49.196;8.286;2022-12-29T07:26:51;10.60;99.90
5461;DHT22;2753;49.196;8.286;2022-12-29T07:29:17;10.60;99.90
5461;DHT22;2753;49.196;8.286;2022-12-29T07:31:43;10.50;99.90
5461;DHT22;2753;49.196;8.286;2022-12-29T07:34:09;10.50;99.90
5461;DHT22;2753;49.196;8.286;2022-12-29T07:36:34;10.40;99.90
5461;DHT22;2753;49.196;8.286;2022-12-29T07:39:01;10.40;99.90
5461;DHT22;2753;49.196;8.286;2022-12-29T07:41:27;10.40;99.90
5461;DHT22;2753;49.196;8.286;2022-12-29T07:43:53;10.40;99.90
5461;DHT22;2753;49.196;8.286;2022-12-29T07:46:19;10.40;99.90
5461;DHT22;2753;49.196;8.286;2022-12-29T07:48:44;10.40;99.90
5461;DHT22;2753;49.196;8.286;2022-12-29T07:51:10;10.40;99.90
5461;DHT22;2753;49.196;8.286;2022-12-29T07:53:36;10.50;99.90
5461;DHT22;2753;49.196;8.286;2022-12-29T07:56:02;10.50;99.90
5461;DHT22;2753;49.196;8.286;2022-12-29T07:58:28;10.50;99.90
5461;DHT22;2753;49.196;8.286;2022-12-29T08:00:55;10.50;99.90
5461;DHT22;2753;49.196;8.286;2022-12-29T08:03:21;10.50;99.90
5461;DHT22;2753;49.196;8.286;2022-12-29T08:05:46;10.50;99.90
5461;DHT22;2753;49.196;8.286;2022-12-29T08:08:12;10.50;99.90
5461;DHT22;2753;49.196;8.286;2022-12-29T08:10:38;10.50;99.90
5461;DHT22;2753;49.196;8.286;2022-12-29T08:13:04;10.50;99.90
5461;DHT22;2753;49.196;8.286;2022-12-29T08:15:29;10.50;99.90
5461;DHT22;2753;49.196;8.286;2022-12-29T08:17:55;10.50;99.90
5461;DHT22;2753;49.196;8.286;2022-12-29T08:20:21;10.40;99.90
5461;DHT22;2753;49.196;8.286;2022-12-29T08:22:46;10.40;99.90
5461;DHT22;2753;49.196;8.286;2022-12-29T08:25:12;10.50;99.90
5461;DHT22;2753;49.196;8.286;2022-12-29T08:27:37;10.60;99.90
5461;DHT22;2753;49.196;8.286;2022-12-29T08:30:03;10.60;99.90
5461;DHT22;2753;49.196;8.286;2022-12-29T08:32:29;10.70;99.90
5461;DHT22;2753;49.196;8.286;2022-12-29T08:34:55;10.80;99.90
5461;DHT22;2753;49.196;8.286;2022-12-29T08:37:21;10.90;99.90
5461;DHT22;2753;49.196;8.286;2022-12-29T08:39:47;11.00;99.90
5461;DHT22;2753;49.196;8.286;2022-12-29T08:42:13;11.10;99.90
5461;DHT22;2753;49.196;8.286;2022-12-29T08:44:39;11.00;99.90
5461;DHT22;2753;49.196;8.286;2022-12-29T08:47:05;11.10;99.90
5461;DHT22;2753;49.196;8.286;2022-12-29T08:49:31;11.20;99.90
5461;DHT22;2753;49.196;8.286;2022-12-29T08:51:57;11.20;99.90
5461;DHT22;2753;49.196;8.286;2022-12-29T08:54:23;11.30;99.90
5461;DHT22;2753;49.196;8.286;2022-12-29T08:56:48;11.30;99.90
5461;DHT22;2753;49.196;8.286;2022-12-29T08:59:14;11.40;99.90
5461;DHT22;2753;49.196;8.286;2022-12-29T09:01:40;11.50;99.90
5461;DHT22;2753;49.196;8.286;2022-12-29T09:04:06;11.50;99.90
5461;DHT22;2753;49.196;8.286;2022-12-29T09:06:32;11.40;99.90
5461;DHT22;2753;49.196;8.286;2022-12-29T09:08:59;11.40;99.90
5461;DHT22;2753;49.196;8.286;2022-12-29T09:11:25;11.50;99.90
5461;DHT22;2753;49.196;8.286;2022-12-29T09:13:51;11.40;99.90
5461;DHT22;2753;49.196;8.286;2022-12-29T09:16:18;11.50;99.90
5461;DHT22;2753;49.196;8.286;2022-12-29T09:18:45;11.50;99.90
5461;DHT22;2753;49.196;8.286;2022-12-29T09:21:12;11.50;99.90
5461;DHT22;2753;49.196;8.286;2022-12-29T09:23:38;11.50;99.90
5461;DHT22;2753;49.196;8.286;2022-12-29T09:26:04;11.60;99.90
5461;DHT22;2753;49.196;8.286;2022-12-29T09:28:30;11.60;99.90
5461;DHT22;2753;49.196;8.286;2022-12-29T09:30:57;11.60;99.90
5461;DHT22;2753;49.196;8.286;2022-12-29T09:33:24;11.50;99.90
5461;DHT22;2753;49.196;8.286;2022-12-29T09:35:54;11.50;99.90
5461;DHT22;2753;49.196;8.286;2022-12-29T09:38:21;11.50;99.90
5461;DHT22;2753;49.196;8.286;2022-12-29T09:40:53;11.50;99.90
5461;DHT22;2753;49.196;8.286;2022-12-29T09:48:27;12.10;99.90
5461;DHT22;2753;49.196;8.286;2022-12-29T09:51:03;11.60;99.90
5461;DHT22;2753;49.196;8.286;2022-12-29T09:53:43;11.70;99.90
5461;DHT22;2753;49.196;8.286;2022-12-29T09:56:18;11.70;99.90
5461;DHT22;2753;49.196;8.286;2022-12-29T09:58:54;11.40;99.90
5461;DHT22;2753;49.196;8.286;2022-12-29T10:01:30;11.70;99.90
5461;DHT22;2753;49.196;8.286;2022-12-29T10:03:58;11.80;99.90
5461;DHT22;2753;49.196;8.286;2022-12-29T10:09:40;11.70;99.90
5461;DHT22;2753;49.196;8.286;2022-12-29T10:14:58;11.80;99.90
5461;DHT22;2753;49.196;8.286;2022-12-29T10:17:55;11.80;99.90
5461;DHT22;2753;49.196;8.286;2022-12-29T10:20:33;11.80;99.90
5461;DHT22;2753;49.196;8.286;2022-12-29T10:25:42;11.70;99.90
5461;DHT22;2753;49.196;8.286;2022-12-29T10:28:34;11.70;99.90
5461;DHT22;2753;49.196;8.286;2022-12-29T10:31:01;11.70;99.90
5461;DHT22;2753;49.196;8.286;2022-12-29T10:33:36;11.70;99.90
5461;DHT22;2753;49.196;8.286;2022-12-29T10:36:14;11.70;99.90
5461;DHT22;2753;49.196;8.286;2022-12-29T10:38:47;11.70;99.90
5461;DHT22;2753;49.196;8.286;2022-12-29T10:42:08;11.70;99.90
5461;DHT22;2753;49.196;8.286;2022-12-29T10:44:13;11.70;99.90
5461;DHT22;2753;49.196;8.286;2022-12-29T10:46:40;11.60;99.90
5461;DHT22;2753;49.196;8.286;2022-12-29T10:49:14;11.60;99.90
5461;DHT22;2753;49.196;8.286;2022-12-29T10:51:42;11.60;99.90
5461;DHT22;2753;49.196;8.286;2022-12-29T10:57:27;11.70;99.90
5461;DHT22;2753;49.196;8.286;2022-12-29T10:59:54;11.70;99.90
5461;DHT22;2753;49.196;8.286;2022-12-29T11:07:30;12.00;99.90
5461;DHT22;2753;49.196;8.286;2022-12-29T11:10:19;12.00;99.90
5461;DHT22;2753;49.196;8.286;2022-12-29T11:13:05;12.10;99.90
5461;DHT22;2753;49.196;8.286;2022-12-29T11:15:46;12.30;99.90
5461;DHT22;2753;49.196;8.286;2022-12-29T11:18:33;12.50;99.90
5461;DHT22;2753;49.196;8.286;2022-12-29T11:21:04;12.60;99.90
5461;DHT22;2753;49.196;8.286;2022-12-29T11:26:21;12.90;99.90
5461;DHT22;2753;49.196;8.286;2022-12-29T11:31:48;13.00;99.90
5461;DHT22;2753;49.196;8.286;2022-12-29T11:34:46;13.30;99.90
5461;DHT22;2753;49.196;8.286;2022-12-29T11:37:43;13.10;99.90
5461;DHT22;2753;49.196;8.286;2022-12-29T11:40:19;13.30;99.90
5461;DHT22;2753;49.196;8.286;2022-12-29T11:42:54;13.40;99.90
5461;DHT22;2753;49.196;8.286;2022-12-29T11:45:23;13.40;99.90
5461;DHT22;2753;49.196;8.286;2022-12-29T11:47:59;13.50;99.90
5461;DHT22;2753;49.196;8.286;2022-12-29T11:50:28;13.40;99.90
5461;DHT22;2753;49.196;8.286;2022-12-29T11:53:01;13.50;99.90
5461;DHT22;2753;49.196;8.286;2022-12-29T11:55:27;13.50;99.90
5461;DHT22;2753;49.196;8.286;2022-12-29T11:57:55;13.50;99.90
5461;DHT22;2753;49.196;8.286;2022-12-29T12:00:24;13.40;99.90
5461;DHT22;2753;49.196;8.286;2022-12-29T12:03:04;13.30;99.90
5461;DHT22;2753;49.196;8.286;2022-12-29T12:05:55;13.20;99.90
5461;DHT22;2753;49.196;8.286;2022-12-29T12:08:41;13.20;99.90
5461;DHT22;2753;49.196;8.286;2022-12-29T12:11:21;13.10;99.90
5461;DHT22;2753;49.196;8.286;2022-12-29T12:16:28;13.00;99.90
5461;DHT22;2753;49.196;8.286;2022-12-29T12:21:56;13.10;99.90
5461;DHT22;2753;49.196;8.286;2022-12-29T12:27:13;13.20;99.90
5461;DHT22;2753;49.196;8.286;2022-12-29T12:29:57;13.30;99.90
5461;DHT22;2753;49.196;8.286;2022-12-29T12:34:59;13.30;99.90
5461;DHT22;2753;49.196;8.286;2022-12-29T12:37:52;13.30;99.90
5461;DHT22;2753;49.196;8.286;2022-12-29T12:45:48;13.00;99.90
5461;DHT22;2753;49.196;8.286;2022-12-29T12:48:28;13.00;99.90
5461;DHT22;2753;49.196;8.286;2022-12-29T12:51:33;12.90;99.90
5461;DHT22;2753;49.196;8.286;2022-12-29T12:56:47;12.90;99.90
5461;DHT22;2753;49.196;8.286;2022-12-29T13:02:34;12.90;99.90
5461;DHT22;2753;49.196;8.286;2022-12-29T13:05:20;13.00;99.90
5461;DHT22;2753;49.196;8.286;2022-12-29T13:10:52;13.20;99.90
5461;DHT22;2753;49.196;8.286;2022-12-29T13:24:40;13.50;99.90
5461;DHT22;2753;49.196;8.286;2022-12-29T13:27:27;13.60;99.90
5461;DHT22;2753;49.196;8.286;2022-12-29T13:32:49;13.50;99.90
5461;DHT22;2753;49.196;8.286;2022-12-29T13:38:03;13.40;99.90
5461;DHT22;2753;49.196;8.286;2022-12-29T13:40:34;13.30;99.90
5461;DHT22;2753;49.196;8.286;2022-12-29T13:43:04;13.30;99.90
5461;DHT22;2753;49.196;8.286;2022-12-29T13:45:31;13.30;99.90
5461;DHT22;2753;49.196;8.286;2022-12-29T13:48:30;13.20;99.90
5461;DHT22;2753;49.196;8.286;2022-12-29T13:51:00;13.10;99.90
5461;DHT22;2753;49.196;8.286;2022-12-29T13:53:40;13.00;99.90
5461;DHT22;2753;49.196;8.286;2022-12-29T13:56:20;13.00;99.90
5461;DHT22;2753;49.196;8.286;2022-12-29T14:01:46;13.00;99.90
5461;DHT22;2753;49.196;8.286;2022-12-29T14:04:25;12.90;99.90
5461;DHT22;2753;49.196;8.286;2022-12-29T14:07:05;12.80;99.90
5461;DHT22;2753;49.196;8.286;2022-12-29T14:09:47;12.80;99.90
5461;DHT22;2753;49.196;8.286;2022-12-29T14:15:06;12.70;99.90
5461;DHT22;2753;49.196;8.286;2022-12-29T14:17:43;12.70;99.90
5461;DHT22;2753;49.196;8.286;2022-12-29T14:20:22;12.70;99.90
5461;DHT22;2753;49.196;8.286;2022-12-29T14:28:31;12.50;99.90
5461;DHT22;2753;49.196;8.286;2022-12-29T14:31:43;12.40;99.90
5461;DHT22;2753;49.196;8.286;2022-12-29T14:36:36;12.20;99.90
5461;DHT22;2753;49.196;8.286;2022-12-29T14:39:04;12.10;99.90
5461;DHT22;2753;49.196;8.286;2022-12-29T14:44:34;12.00;99.90
5461;DHT22;2753;49.196;8.286;2022-12-29T14:47:18;12.00;99.90
5461;DHT22;2753;49.196;8.286;2022-12-29T14:49:45;12.00;99.90
5461;DHT22;2753;49.196;8.286;2022-12-29T14:52:16;12.00;99.90
5461;DHT22;2753;49.196;8.286;2022-12-29T14:54:51;11.90;99.90
5461;DHT22;2753;49.196;8.286;2022-12-29T14:57:35;11.90;99.90
5461;DHT22;2753;49.196;8.286;2022-12-29T15:00:14;11.80;99.90
5461;DHT22;2753;49.196;8.286;2022-12-29T15:02:45;11.80;99.90
5461;DHT22;2753;49.196;8.286;2022-12-29T15:05:54;11.90;99.90
5461;DHT22;2753;49.196;8.286;2022-12-29T15:08:24;11.90;99.90
5461;DHT22;2753;49.196;8.286;2022-12-29T15:11:11;11.90;99.90
5461;DHT22;2753;49.196;8.286;2022-12-29T15:13:41;11.80;99.90
5461;DHT22;2753;49.196;8.286;2022-12-29T15:16:31;11.80;99.90
5461;DHT22;2753;49.196;8.286;2022-12-29T15:18:58;11.80;99.90
5461;DHT22;2753;49.196;8.286;2022-12-29T15:21:32;11.70;99.90
5461;DHT22;2753;49.196;8.286;2022-12-29T15:23:59;11.70;99.90
5461;DHT22;2753;49.196;8.286;2022-12-29T15:26:42;11.60;99.90
5461;DHT22;2753;49.196;8.286;2022-12-29T15:29:46;11.50;99.90
5461;DHT22;2753;49.196;8.286;2022-12-29T15:34:42;11.40;99.90
5461;DHT22;2753;49.196;8.286;2022-12-29T15:37:08;11.40;99.90
5461;DHT22;2753;49.196;8.286;2022-12-29T15:39:35;11.40;99.90
5461;DHT22;2753;49.196;8.286;2022-12-29T15:42:27;11.30;99.90
5461;DHT22;2753;49.196;8.286;2022-12-29T15:44:55;11.20;99.90
5461;DHT22;2753;49.196;8.286;2022-12-29T15:47:25;11.20;99.90
5461;DHT22;2753;49.196;8.286;2022-12-29T15:50:02;11.20;99.90
5461;DHT22;2753;49.196;8.286;2022-12-29T15:52:29;11.20;99.90
5461;DHT22;2753;49.196;8.286;2022-12-29T15:54:58;11.10;99.90
5461;DHT22;2753;49.196;8.286;2022-12-29T15:57:31;11.10;99.90
5461;DHT22;2753;49.196;8.286;2022-12-29T16:00:03;11.20;99.90
5461;DHT22;2753;49.196;8.286;2022-12-29T16:02:31;11.10;99.90
5461;DHT22;2753;49.196;8.286;2022-12-29T16:04:57;11.10;99.90
5461;DHT22;2753;49.196;8.286;2022-12-29T16:07:32;11.10;99.90
5461;DHT22;2753;49.196;8.286;2022-12-29T16:10:02;11.10;99.90
5461;DHT22;2753;49.196;8.286;2022-12-29T16:12:35;11.00;99.90
5461;DHT22;2753;49.196;8.286;2022-12-29T16:15:05;11.00;99.90
5461;DHT22;2753;49.196;8.286;2022-12-29T16:17:44;11.00;99.90
5461;DHT22;2753;49.196;8.286;2022-12-29T16:20:19;10.90;99.90
5461;DHT22;2753;49.196;8.286;2022-12-29T16:22:53;10.80;99.90
5461;DHT22;2753;49.196;8.286;2022-12-29T16:25:32;10.70;99.90
5461;DHT22;2753;49.196;8.286;2022-12-29T16:28:00;10.70;99.90
5461;DHT22;2753;49.196;8.286;2022-12-29T16:30:33;10.70;99.90
5461;DHT22;2753;49.196;8.286;2022-12-29T16:33:04;10.80;99.90
5461;DHT22;2753;49.196;8.286;2022-12-29T16:35:46;10.70;99.90
5461;DHT22;2753;49.196;8.286;2022-12-29T16:38:18;10.70;99.90
5461;DHT22;2753;49.196;8.286;2022-12-29T16:40:55;10.70;99.90
5461;DHT22;2753;49.196;8.286;2022-12-29T16:43:31;10.70;99.90
5461;DHT22;2753;49.196;8.286;2022-12-29T16:51:12;10.80;99.90
5461;DHT22;2753;49.196;8.286;2022-12-29T16:53:40;10.80;99.90
5461;DHT22;2753;49.196;8.286;2022-12-29T16:56:22;10.80;99.90
5461;DHT22;2753;49.196;8.286;2022-12-29T16:59:40;10.70;99.90
5461;DHT22;2753;49.196;8.286;2022-12-29T17:01:47;10.70;99.90
5461;DHT22;2753;49.196;8.286;2022-12-29T17:04:13;10.70;99.90
5461;DHT22;2753;49.196;8.286;2022-12-29T17:06:39;10.70;99.90
5461;DHT22;2753;49.196;8.286;2022-12-29T17:09:26;10.70;99.90
5461;DHT22;2753;49.196;8.286;2022-12-29T17:11:55;10.70;99.90
5461;DHT22;2753;49.196;8.286;2022-12-29T17:17:38;10.70;99.90
5461;DHT22;2753;49.196;8.286;2022-12-29T17:19:59;10.70;99.90
5461;DHT22;2753;49.196;8.286;2022-12-29T17:22:29;10.70;99.90
5461;DHT22;2753;49.196;8.286;2022-12-29T17:24:57;10.70;99.90
5461;DHT22;2753;49.196;8.286;2022-12-29T17:27:33;10.70;99.90
5461;DHT22;2753;49.196;8.286;2022-12-29T17:30:04;10.70;99.90
5461;DHT22;2753;49.196;8.286;2022-12-29T17:32:30;10.70;99.90
5461;DHT22;2753;49.196;8.286;2022-12-29T17:34:57;10.70;99.90
5461;DHT22;2753;49.196;8.286;2022-12-29T17:39:50;10.70;99.90
5461;DHT22;2753;49.196;8.286;2022-12-29T17:42:17;10.70;99.90
5461;DHT22;2753;49.196;8.286;2022-12-29T17:44:43;10.70;99.90
5461;DHT22;2753;49.196;8.286;2022-12-29T17:47:12;10.70;99.90
5461;DHT22;2753;49.196;8.286;2022-12-29T17:49:40;10.60;99.90
5461;DHT22;2753;49.196;8.286;2022-12-29T17:52:13;10.60;99.90
5461;DHT22;2753;49.196;8.286;2022-12-29T17:54:49;10.60;99.90
5461;DHT22;2753;49.196;8.286;2022-12-29T17:57:16;10.60;99.90
5461;DHT22;2753;49.196;8.286;2022-12-29T17:59:43;10.60;99.90
5461;DHT22;2753;49.196;8.286;2022-12-29T18:02:30;10.50;99.90
5461;DHT22;2753;49.196;8.286;2022-12-29T18:04:57;10.50;99.90
5461;DHT22;2753;49.196;8.286;2022-12-29T18:07:26;10.50;99.90
5461;DHT22;2753;49.196;8.286;2022-12-29T18:09:52;10.50;99.90
5461;DHT22;2753;49.196;8.286;2022-12-29T18:12:39;10.50;99.90
5461;DHT22;2753;49.196;8.286;2022-12-29T18:15:09;10.40;99.90
5461;DHT22;2753;49.196;8.286;2022-12-29T18:17:40;10.40;99.90
5461;DHT22;2753;49.196;8.286;2022-12-29T18:20:06;10.40;99.90
5461;DHT22;2753;49.196;8.286;2022-12-29T18:22:32;10.30;99.90
5461;DHT22;2753;49.196;8.286;2022-12-29T18:24:58;10.30;99.90
5461;DHT22;2753;49.196;8.286;2022-12-29T18:27:24;10.30;99.90
5461;DHT22;2753;49.196;8.286;2022-12-29T18:29:50;10.20;99.90
5461;DHT22;2753;49.196;8.286;2022-12-29T18:32:16;10.20;99.90
5461;DHT22;2753;49.196;8.286;2022-12-29T18:34:42;10.30;99.90
5461;DHT22;2753;49.196;8.286;2022-12-29T18:37:09;10.10;99.90
5461;DHT22;2753;49.196;8.286;2022-12-29T18:39:35;10.20;99.90
5461;DHT22;2753;49.196;8.286;2022-12-29T18:42:02;10.20;99.90
5461;DHT22;2753;49.196;8.286;2022-12-29T18:44:28;10.20;99.90
5461;DHT22;2753;49.196;8.286;2022-12-29T18:46:54;10.10;99.90
5461;DHT22;2753;49.196;8.286;2022-12-29T18:49:20;10.10;99.90
5461;DHT22;2753;49.196;8.286;2022-12-29T18:51:46;10.10;99.90
5461;DHT22;2753;49.196;8.286;2022-12-29T18:54:29;10.10;99.90
5461;DHT22;2753;49.196;8.286;2022-12-29T18:56:55;10.10;99.90
5461;DHT22;2753;49.196;8.286;2022-12-29T18:59:21;10.00;99.90
5461;DHT22;2753;49.196;8.286;2022-12-29T19:01:48;10.10;99.90